Time;durP1;ratioP1;P1;durP2;ratioP2;P2;SDS_P1;SDS_P2;PMS_P1;PMS_P2;Temp;Humidity;BMP_temperature;BMP_pressure;BME280_temperature;BME280_humidity;BME280_pressure;Samples;Min_cycle;Max_cycle;Signal;HPM_P1;HPM_P2
2021/12/30 00:01:41;;;;;;;7.65;3.35;;;20.40;56.20;;;;;;5012432;28;20042;-65
2021/12/30 00:04:07;;;;;;;8.93;3.38;;;20.40;56.10;;;;;;5014876;28;20046;-65
2021/12/30 00:06:39;;;;;;;9.02;3.33;;;20.40;56.10;;;;;;5012907;28;20068;-64
2021/12/30 00:09:05;;;;;;;8.18;3.22;;;20.30;56.00;;;;;;5013899;28;20046;-65
2021/12/30 00:11:30;;;;;;;7.10;2.85;;;20.30;56.10;;;;;;5014331;28;20381;-65
2021/12/30 00:13:56;;;;;;;6.13;2.65;;;20.30;56.00;;;;;;5013079;28;20042;-65
2021/12/30 00:16:21;;;;;;;8.98;3.55;;;20.30;56.00;;;;;;5014000;28;20077;-64
2021/12/30 00:18:47;;;;;;;6.53;2.95;;;20.30;56.00;;;;;;5013184;28;20080;-65
2021/12/30 00:21:13;;;;;;;9.75;3.22;;;20.30;56.00;;;;;;5014540;28;20045;-64
2021/12/30 00:23:38;;;;;;;6.82;3.10;;;20.20;56.00;;;;;;5013868;28;20120;-64
2021/12/30 00:26:04;;;;;;;6.63;2.63;;;20.20;56.00;;;;;;5012917;28;20050;-64
2021/12/30 00:28:30;;;;;;;8.20;2.50;;;20.20;56.00;;;;;;5013026;28;20171;-64
2021/12/30 00:30:55;;;;;;;7.07;2.90;;;20.20;56.00;;;;;;5013532;28;20124;-64
2021/12/30 00:33:21;;;;;;;7.38;2.60;;;20.20;56.00;;;;;;5012541;28;20141;-65
2021/12/30 00:35:46;;;;;;;6.75;2.70;;;20.20;56.00;;;;;;5013223;28;20161;-65
2021/12/30 00:38:13;;;;;;;7.25;2.65;;;20.20;56.00;;;;;;5013627;28;20497;-65
2021/12/30 00:40:39;;;;;;;8.15;2.78;;;20.20;56.00;;;;;;5014065;28;20493;-65
2021/12/30 00:43:05;;;;;;;6.43;2.60;;;20.20;56.00;;;;;;5013742;28;20040;-65
2021/12/30 00:45:31;;;;;;;6.57;2.90;;;20.20;56.00;;;;;;5013470;28;20123;-65
2021/12/30 00:47:57;;;;;;;6.60;2.50;;;20.20;56.00;;;;;;5012521;28;20049;-65
2021/12/30 00:50:23;;;;;;;5.63;2.45;;;20.20;56.00;;;;;;5013247;28;20125;-65
2021/12/30 00:52:48;;;;;;;7.68;2.30;;;20.20;56.00;;;;;;5012198;28;20076;-65
2021/12/30 00:55:14;;;;;;;5.30;2.42;;;20.20;56.00;;;;;;5012816;28;20077;-65
2021/12/30 00:57:41;;;;;;;6.32;2.35;;;20.10;55.90;;;;;;5013140;28;20168;-65
2021/12/30 01:00:08;;;;;;;6.85;2.42;;;20.10;56.00;;;;;;5012447;28;20053;-64
2021/12/30 01:02:33;;;;;;;7.10;2.72;;;20.10;56.00;;;;;;5012760;28;20058;-65
2021/12/30 01:04:59;;;;;;;7.15;2.45;;;20.10;56.00;;;;;;5012619;28;20531;-65
2021/12/30 01:07:24;;;;;;;7.20;2.70;;;20.10;56.00;;;;;;5013391;28;20070;-65
2021/12/30 01:09:50;;;;;;;7.32;2.58;;;20.10;56.00;;;;;;5013557;28;20054;-65
2021/12/30 01:12:15;;;;;;;7.07;2.00;;;20.10;56.00;;;;;;5011129;28;20100;-65
2021/12/30 01:14:46;;;;;;;6.60;2.17;;;20.10;56.00;;;;;;5013399;28;20050;-65
2021/12/30 01:17:18;;;;;;;6.43;2.33;;;20.10;56.00;;;;;;5012412;28;20077;-64
2021/12/30 01:19:44;;;;;;;6.32;2.20;;;20.10;56.00;;;;;;5011312;28;20046;-65
2021/12/30 01:22:36;;;;;;;4.50;2.00;;;20.10;56.00;;;;;;5013478;28;20092;-64
2021/12/30 01:25:03;;;;;;;7.38;2.40;;;20.10;56.00;;;;;;5010151;28;20046;-65
2021/12/30 01:27:29;;;;;;;5.57;2.13;;;20.00;56.00;;;;;;5012287;28;20457;-65
2021/12/30 01:29:54;;;;;;;6.68;2.53;;;20.10;56.00;;;;;;5011884;28;20536;-65
2021/12/30 01:32:20;;;;;;;6.95;2.53;;;20.00;56.00;;;;;;5012629;28;20497;-65
2021/12/30 01:34:47;;;;;;;7.13;2.10;;;20.00;56.00;;;;;;5012461;28;20501;-65
2021/12/30 01:37:14;;;;;;;7.10;2.53;;;20.00;56.70;;;;;;5012194;28;20050;-64
2021/12/30 01:39:40;;;;;;;6.70;2.15;;;20.00;56.10;;;;;;5011079;28;20042;-64
2021/12/30 01:42:06;;;;;;;6.10;1.88;;;20.00;56.10;;;;;;5012493;28;20046;-64
2021/12/30 01:44:33;;;;;;;6.82;2.25;;;20.00;56.10;;;;;;5012053;28;20049;-64
2021/12/30 01:46:59;;;;;;;5.35;2.15;;;20.00;56.10;;;;;;5010450;28;20046;-65
2021/12/30 01:49:25;;;;;;;7.05;1.90;;;20.00;56.10;;;;;;5012851;28;20052;-64
2021/12/30 01:51:51;;;;;;;7.55;2.28;;;20.00;56.00;;;;;;5011170;28;20046;-64
2021/12/30 01:54:17;;;;;;;7.18;2.22;;;20.00;56.10;;;;;;5012213;28;20085;-64
2021/12/30 01:56:42;;;;;;;7.95;2.28;;;20.00;56.10;;;;;;5011408;28;20042;-65
2021/12/30 01:59:08;;;;;;;4.82;1.98;;;20.00;56.00;;;;;;5011611;28;20515;-64
2021/12/30 02:01:34;;;;;;;6.75;2.40;;;20.00;56.10;;;;;;5012278;28;20541;-64
2021/12/30 02:03:59;;;;;;;6.25;2.00;;;19.90;55.90;;;;;;5012113;28;20052;-64
2021/12/30 02:06:25;;;;;;;6.18;2.03;;;19.90;56.00;;;;;;5012778;28;20050;-65
2021/12/30 02:08:51;;;;;;;8.68;2.30;;;19.90;56.00;;;;;;5011794;28;20104;-65
2021/12/30 02:11:20;;;;;;;6.38;2.15;;;19.90;56.10;;;;;;5011220;28;20049;-64
2021/12/30 02:13:48;;;;;;;8.38;2.30;;;19.90;56.00;;;;;;5012586;28;20049;-64
2021/12/30 02:16:15;;;;;;;7.25;1.80;;;19.90;56.00;;;;;;5010880;28;20505;-64
2021/12/30 02:18:41;;;;;;;6.68;2.50;;;19.90;56.00;;;;;;5012200;28;20493;-64
2021/12/30 02:21:06;;;;;;;6.78;2.10;;;19.90;56.00;;;;;;5012965;28;20065;-64
2021/12/30 02:23:33;;;;;;;6.47;1.90;;;19.90;56.00;;;;;;5010809;28;20057;-65
2021/12/30 02:26:13;;;;;;;5.85;2.33;;;19.90;56.00;;;;;;5012548;28;20042;-64
2021/12/30 02:28:39;;;;;;;7.32;1.90;;;19.90;56.00;;;;;;5009789;28;20390;-64
2021/12/30 02:31:25;;;;;;;5.47;1.88;;;19.80;55.90;;;;;;5011939;28;20524;-64
2021/12/30 02:33:51;;;;;;;6.85;1.92;;;19.90;56.00;;;;;;5010913;28;20050;-64
2021/12/30 02:36:21;;;;;;;4.95;1.73;;;19.80;56.00;;;;;;5012025;28;20042;-64
2021/12/30 02:38:46;;;;;;;6.40;2.05;;;19.80;56.00;;;;;;5012392;28;20061;-64
2021/12/30 02:41:16;;;;;;;5.32;1.70;;;19.80;55.90;;;;;;5011124;28;20038;-64
2021/12/30 02:43:41;;;;;;;7.93;1.92;;;19.80;55.90;;;;;;5011469;28;20437;-64
2021/12/30 02:46:07;;;;;;;8.98;2.40;;;19.80;55.90;;;;;;5012504;28;20108;-64
2021/12/30 02:48:34;;;;;;;6.78;2.38;;;19.80;55.80;;;;;;5011300;28;20092;-64
2021/12/30 02:51:01;;;;;;;6.32;1.92;;;19.90;55.90;;;;;;5011341;28;20501;-64
2021/12/30 02:53:27;;;;;;;5.83;2.03;;;19.80;55.80;;;;;;5012358;28;20486;-64
2021/12/30 02:55:53;;;;;;;7.55;2.20;;;19.80;55.80;;;;;;5012321;28;20034;-64
2021/12/30 02:58:20;;;;;;;7.22;2.22;;;19.80;55.90;;;;;;5011711;28;20085;-64
2021/12/30 03:00:46;;;;;;;6.13;1.98;;;19.90;56.00;;;;;;5015144;28;20064;-64
2021/12/30 03:03:29;;;;;;;7.68;1.80;;;19.90;55.80;;;;;;5014431;28;20046;-64
2021/12/30 03:05:56;;;;;;;4.88;1.73;;;19.90;55.90;;;;;;5013654;28;20157;-64
2021/12/30 03:08:22;;;;;;;6.63;1.95;;;19.90;55.80;;;;;;5014617;28;20404;-64
2021/12/30 03:10:48;;;;;;;6.22;1.95;;;19.90;56.50;;;;;;5015210;28;20042;-65
2021/12/30 03:13:15;;;;;;;6.00;1.90;;;19.90;55.80;;;;;;5013740;28;20054;-64
2021/12/30 03:15:41;;;;;;;5.85;2.08;;;19.90;55.80;;;;;;5015211;28;20533;-65
2021/12/30 03:18:07;;;;;;;7.70;2.38;;;19.90;55.80;;;;;;5015047;28;20046;-64
2021/12/30 03:20:35;;;;;;;5.78;1.55;;;19.90;55.80;;;;;;5015548;28;20041;-64
2021/12/30 03:23:01;;;;;;;8.07;2.08;;;20.00;55.80;;;;;;5015337;28;20052;-65
2021/12/30 03:25:26;;;;;;;6.65;2.00;;;20.00;55.80;;;;;;5015012;28;20042;-64
2021/12/30 03:27:52;;;;;;;6.88;1.60;;;20.00;55.80;;;;;;5015013;28;20052;-65
2021/12/30 03:30:17;;;;;;;5.78;1.60;;;20.00;55.70;;;;;;5013877;28;20041;-64
2021/12/30 03:32:43;;;;;;;5.63;1.75;;;20.00;55.70;;;;;;5012889;28;20084;-65
2021/12/30 03:35:09;;;;;;;5.32;1.50;;;20.00;55.70;;;;;;5014276;28;20042;-64
2021/12/30 03:37:35;;;;;;;5.82;1.85;;;20.00;55.70;;;;;;5015412;28;20401;-64
2021/12/30 03:40:01;;;;;;;8.10;2.00;;;20.00;55.70;;;;;;5014501;28;20053;-64
2021/12/30 03:42:26;;;;;;;5.82;1.83;;;20.00;55.70;;;;;;5014959;28;20069;-65
2021/12/30 03:44:56;;;;;;;5.75;1.52;;;20.10;55.70;;;;;;5015084;28;20444;-65
2021/12/30 03:47:22;;;;;;;5.45;1.65;;;20.10;55.70;;;;;;5013090;28;20057;-64
2021/12/30 03:49:47;;;;;;;6.93;2.00;;;20.10;55.60;;;;;;5013761;28;20038;-64
2021/12/30 03:52:15;;;;;;;6.40;1.80;;;20.10;55.60;;;;;;5014943;28;20042;-64
2021/12/30 03:54:42;;;;;;;6.28;2.20;;;20.10;55.70;;;;;;5012823;28;20527;-65
2021/12/30 03:57:08;;;;;;;7.05;1.63;;;20.10;55.60;;;;;;5013561;28;20069;-65
2021/12/30 03:59:33;;;;;;;5.45;1.63;;;20.10;55.60;;;;;;5014590;28;20070;-64
2021/12/30 04:01:59;;;;;;;5.88;1.73;;;20.10;55.60;;;;;;5013799;28;20064;-64
2021/12/30 04:04:24;;;;;;;6.35;1.70;;;20.20;55.60;;;;;;5013444;28;20077;-64
2021/12/30 04:06:50;;;;;;;7.47;1.92;;;20.20;55.60;;;;;;5014266;28;20081;-64
2021/12/30 04:09:15;;;;;;;6.78;1.88;;;20.20;55.60;;;;;;5012632;28;20397;-64
2021/12/30 04:11:41;;;;;;;6.40;1.70;;;20.20;55.70;;;;;;5014384;28;20050;-65
2021/12/30 04:14:06;;;;;;;6.53;1.98;;;20.10;55.60;;;;;;4996990;28;20133;-65
2021/12/30 04:16:33;;;;;;;5.65;1.65;;;20.20;55.60;;;;;;5013145;28;20042;-65
2021/12/30 04:18:58;;;;;;;6.05;1.80;;;20.20;55.60;;;;;;4996608;28;20128;-64
2021/12/30 04:21:24;;;;;;;6.97;1.60;;;20.20;55.60;;;;;;5012723;28;20133;-64
2021/12/30 04:23:50;;;;;;;6.80;1.85;;;20.20;55.60;;;;;;5014201;28;20367;-65
2021/12/30 04:26:15;;;;;;;6.10;1.70;;;20.20;55.50;;;;;;5013029;28;20409;-65
2021/12/30 04:28:41;;;;;;;4.90;1.83;;;20.20;55.50;;;;;;5012237;28;20078;-65
2021/12/30 04:31:06;;;;;;;5.72;1.50;;;20.20;55.50;;;;;;5014516;28;20442;-65
2021/12/30 04:33:32;;;;;;;8.93;2.20;;;20.20;55.50;;;;;;5012977;28;20058;-64
2021/12/30 04:35:57;;;;;;;5.88;1.98;;;20.20;55.50;;;;;;5013343;28;20038;-65
2021/12/30 04:38:27;;;;;;;8.05;1.88;;;20.30;55.60;;;;;;5014416;28;20543;-64
2021/12/30 04:40:53;;;;;;;9.52;2.25;;;20.30;55.60;;;;;;5014337;28;20120;-65
2021/12/30 04:43:19;;;;;;;6.35;1.88;;;20.30;55.60;;;;;;5013376;28;20120;-64
2021/12/30 04:45:46;;;;;;;7.13;1.60;;;20.30;55.60;;;;;;5012485;28;20552;-65
2021/12/30 04:48:12;;;;;;;5.07;1.43;;;20.30;55.60;;;;;;5014259;28;20045;-64
2021/12/30 04:50:37;;;;;;;6.35;1.80;;;20.30;55.60;;;;;;5013084;28;20298;-64
2021/12/30 04:53:03;;;;;;;4.30;1.30;;;20.30;55.60;;;;;;5013774;28;20080;-64
2021/12/30 04:55:28;;;;;;;5.22;1.55;;;20.30;55.60;;;;;;5012856;28;20038;-64
2021/12/30 04:57:54;;;;;;;6.28;1.95;;;20.30;55.60;;;;;;5012818;28;20136;-65
2021/12/30 05:00:20;;;;;;;5.47;1.70;;;20.30;55.60;;;;;;5011885;28;20085;-64
2021/12/30 05:05:17;;;;;;;7.13;1.70;;;20.30;55.50;;;;;;5011650;28;20069;-65
2021/12/30 05:07:42;;;;;;;5.47;1.55;;;20.40;55.60;;;;;;5010751;28;20461;-64
2021/12/30 05:10:08;;;;;;;5.53;1.60;;;20.40;55.60;;;;;;5012208;28;20054;-65
2021/12/30 05:12:33;;;;;;;5.60;1.60;;;20.40;55.60;;;;;;5012861;28;20045;-64
2021/12/30 05:14:59;;;;;;;4.53;1.40;;;20.40;55.60;;;;;;5013496;28;20034;-64
2021/12/30 05:17:29;;;;;;;4.93;1.48;;;20.40;55.60;;;;;;5012071;28;20108;-65
2021/12/30 05:19:54;;;;;;;5.32;1.45;;;20.40;55.60;;;;;;5011892;28;20046;-64
2021/12/30 05:22:20;;;;;;;6.50;1.40;;;20.40;55.60;;;;;;5013139;28;20443;-64
2021/12/30 05:24:45;;;;;;;4.47;1.40;;;20.40;55.60;;;;;;5012486;28;20361;-65
2021/12/30 05:27:11;;;;;;;6.00;1.58;;;20.40;55.50;;;;;;5012046;28;20762;-65
2021/12/30 05:29:36;;;;;;;6.47;1.52;;;20.40;55.50;;;;;;5012344;28;20049;-65
2021/12/30 05:32:02;;;;;;;4.97;1.25;;;20.40;55.50;;;;;;5012287;28;20091;-64
2021/12/30 05:34:27;;;;;;;3.95;1.30;;;20.40;55.60;;;;;;5013340;28;20041;-64
2021/12/30 05:36:53;;;;;;;4.15;1.27;;;20.40;55.50;;;;;;5011543;28;20042;-64
2021/12/30 05:39:18;;;;;;;4.47;1.48;;;20.40;55.50;;;;;;5011291;28;20056;-65
2021/12/30 05:41:44;;;;;;;5.07;1.67;;;20.40;55.50;;;;;;5012958;28;20421;-64
2021/12/30 05:44:09;;;;;;;5.43;1.38;;;20.40;55.50;;;;;;5011854;28;20048;-64
2021/12/30 05:46:35;;;;;;;3.65;1.20;;;20.40;55.50;;;;;;5012261;28;20042;-65
2021/12/30 05:49:00;;;;;;;5.40;1.52;;;20.50;55.60;;;;;;5012838;28;20077;-65
2021/12/30 05:51:26;;;;;;;4.10;1.45;;;20.40;55.50;;;;;;5012907;28;20063;-65
2021/12/30 05:53:51;;;;;;;5.03;1.33;;;20.50;55.50;;;;;;5010639;28;20400;-65
2021/12/30 05:56:17;;;;;;;6.13;1.70;;;20.50;55.50;;;;;;5013234;28;20042;-65
2021/12/30 05:58:42;;;;;;;5.47;1.40;;;20.50;55.50;;;;;;5011333;28;20453;-65
2021/12/30 06:01:08;;;;;;;4.72;1.50;;;20.40;55.50;;;;;;5010930;28;20041;-65
2021/12/30 06:03:33;;;;;;;3.33;1.20;;;20.50;55.50;;;;;;5011369;28;20042;-65
2021/12/30 06:05:59;;;;;;;4.38;1.35;;;20.50;55.50;;;;;;5011029;28;20068;-65
2021/12/30 06:08:24;;;;;;;4.43;1.23;;;20.40;55.40;;;;;;5012379;28;20053;-65
2021/12/30 06:10:50;;;;;;;4.32;1.60;;;20.50;55.60;;;;;;5012648;28;20045;-65
2021/12/30 06:13:15;;;;;;;3.95;1.38;;;20.50;55.50;;;;;;5012777;28;20085;-65
2021/12/30 06:15:41;;;;;;;5.22;1.33;;;20.50;55.50;;;;;;5012023;28;20053;-65
2021/12/30 06:18:06;;;;;;;5.60;1.52;;;20.50;55.60;;;;;;5011731;28;20050;-65
2021/12/30 06:20:32;;;;;;;4.95;1.42;;;20.50;55.50;;;;;;5011574;28;20049;-65
2021/12/30 06:22:58;;;;;;;4.32;1.10;;;20.50;55.50;;;;;;5011663;28;20045;-65
2021/12/30 06:25:23;;;;;;;3.97;1.20;;;20.50;55.50;;;;;;5012785;28;20381;-65
2021/12/30 06:27:49;;;;;;;6.70;1.30;;;20.50;55.50;;;;;;5010199;28;20050;-65
2021/12/30 06:30:14;;;;;;;3.97;1.10;;;20.50;55.50;;;;;;5012676;28;20050;-64
2021/12/30 06:32:40;;;;;;;3.78;1.13;;;20.50;55.50;;;;;;5011981;28;20050;-65
2021/12/30 06:35:08;;;;;;;4.47;1.30;;;20.50;55.50;;;;;;5015683;28;20839;-65
2021/12/30 06:37:34;;;;;;;3.13;0.85;;;20.50;55.50;;;;;;5016526;28;20129;-65
2021/12/30 06:40:00;;;;;;;4.65;1.30;;;20.50;55.50;;;;;;5016191;28;20050;-63
2021/12/30 06:42:25;;;;;;;4.18;1.38;;;20.50;55.50;;;;;;5014247;28;20046;-65
2021/12/30 06:44:51;;;;;;;3.30;0.98;;;20.50;55.50;;;;;;5016034;28;20053;-65
2021/12/30 06:47:16;;;;;;;3.17;1.00;;;20.50;55.50;;;;;;5015319;28;20128;-65
2021/12/30 06:49:42;;;;;;;4.40;1.35;;;20.60;55.60;;;;;;5015330;28;20492;-64
2021/12/30 06:52:10;;;;;;;3.20;1.20;;;20.60;55.60;;;;;;5016331;28;20048;-64
2021/12/30 06:54:35;;;;;;;6.00;1.42;;;20.60;55.60;;;;;;5016263;28;20049;-64
2021/12/30 06:57:02;;;;;;;3.47;1.15;;;20.60;55.60;;;;;;5014994;28;20056;-64
2021/12/30 06:59:28;;;;;;;5.07;1.35;;;20.60;55.60;;;;;;5016006;28;20037;-64
2021/12/30 07:01:57;;;;;;;5.72;0.90;;;20.60;55.60;;;;;;5015567;28;20052;-64
2021/12/30 07:04:25;;;;;;;;;;;20.60;55.70;;;;;;5025788;28;20037;-64
2021/12/30 07:06:51;;;;;;;3.80;1.00;;;20.60;55.80;;;;;;5034962;28;19928;-64
2021/12/30 07:09:17;;;;;;;4.30;1.23;;;20.70;55.80;;;;;;5035763;28;20034;-64
2021/12/30 07:11:43;;;;;;;3.80;1.23;;;20.70;55.80;;;;;;5033196;28;20095;-64
2021/12/30 07:14:08;;;;;;;3.65;1.20;;;20.70;55.80;;;;;;5035319;28;20140;-63
2021/12/30 07:16:34;;;;;;;6.10;1.45;;;20.70;55.80;;;;;;5035357;28;20041;-64
2021/12/30 07:18:59;;;;;;;5.38;1.42;;;20.70;55.80;;;;;;5034436;28;20041;-64
2021/12/30 07:21:25;;;;;;;4.00;1.20;;;20.70;55.90;;;;;;5034205;28;20500;-64
2021/12/30 07:23:50;;;;;;;4.65;1.52;;;20.70;55.90;;;;;;5035183;28;20140;-65
2021/12/30 07:26:16;;;;;;;4.65;1.35;;;20.70;55.90;;;;;;5034765;28;20042;-66
2021/12/30 07:28:41;;;;;;;4.50;1.17;;;20.80;56.00;;;;;;5033658;28;20099;-65
2021/12/30 07:31:07;;;;;;;6.43;1.27;;;20.80;56.00;;;;;;5034492;28;20075;-65
2021/12/30 07:33:33;;;;;;;4.13;1.40;;;20.80;56.00;;;;;;5033767;28;20097;-65
2021/12/30 07:35:58;;;;;;;3.70;1.17;;;20.80;56.10;;;;;;5033639;28;20048;-65
2021/12/30 07:38:24;;;;;;;3.97;1.10;;;20.80;56.10;;;;;;5033324;28;20053;-65
2021/12/30 07:40:49;;;;;;;3.83;1.00;;;20.80;56.10;;;;;;5034912;28;20404;-65
2021/12/30 07:43:15;;;;;;;3.70;1.00;;;20.90;56.20;;;;;;5034469;28;20053;-62
2021/12/30 07:45:40;;;;;;;4.30;1.38;;;20.90;56.20;;;;;;5034326;28;20037;-63
2021/12/30 07:48:06;;;;;;;3.35;1.00;;;20.90;56.20;;;;;;5034773;28;20485;-63
2021/12/30 07:50:31;;;;;;;1.90;0.82;;;20.90;56.30;;;;;;5034188;28;20052;-63
2021/12/30 07:52:57;;;;;;;4.03;1.40;;;20.90;56.30;;;;;;5029679;28;20378;-62
2021/12/30 07:55:23;;;;;;;3.70;1.10;;;20.90;56.30;;;;;;5034684;28;20048;-63
2021/12/30 07:57:48;;;;;;;3.42;1.10;;;20.90;56.30;;;;;;5034237;28;20483;-63
2021/12/30 08:00:15;;;;;;;2.75;0.98;;;20.90;56.30;;;;;;5032772;28;20556;-62
2021/12/30 08:02:42;;;;;;;4.53;1.10;;;20.90;56.40;;;;;;5033233;28;20061;-63
2021/12/30 08:05:09;;;;;;;2.78;1.02;;;20.90;56.40;;;;;;5034427;28;20095;-64
2021/12/30 08:07:35;;;;;;;4.40;1.10;;;20.90;56.50;;;;;;5025600;28;20405;-65
2021/12/30 08:10:00;;;;;;;2.65;1.05;;;21.00;56.70;;;;;;5014695;28;20478;-64
2021/12/30 08:12:26;;;;;;;3.60;1.00;;;21.00;56.80;;;;;;5014616;28;20481;-64
2021/12/30 08:14:51;;;;;;;3.95;0.90;;;21.00;57.00;;;;;;5012453;28;20041;-64
2021/12/30 08:17:17;;;;;;;5.00;1.00;;;21.00;57.10;;;;;;5014525;28;20056;-65
2021/12/30 08:19:43;;;;;;;3.45;1.00;;;21.00;57.10;;;;;;5014068;28;20070;-64
2021/12/30 08:22:09;;;;;;;3.38;0.73;;;21.00;57.20;;;;;;5013493;28;20476;-64
2021/12/30 08:24:34;;;;;;;4.50;1.10;;;21.00;57.30;;;;;;5014809;28;20128;-64
2021/12/30 08:27:00;;;;;;;3.75;0.80;;;21.00;57.30;;;;;;5014244;28;20092;-66
2021/12/30 08:29:26;;;;;;;3.38;0.90;;;21.00;57.40;;;;;;5013831;28;20474;-66
2021/12/30 08:31:52;;;;;;;4.32;0.90;;;21.00;57.40;;;;;;5012625;28;20077;-65
2021/12/30 08:34:17;;;;;;;4.95;0.80;;;21.00;57.50;;;;;;5014055;28;20405;-64
2021/12/30 08:36:43;;;;;;;2.78;1.00;;;21.10;57.60;;;;;;5013241;28;20125;-64
2021/12/30 08:39:08;;;;;;;3.80;1.10;;;21.00;57.50;;;;;;5014395;28;20042;-65
2021/12/30 08:41:34;;;;;;;3.17;1.10;;;21.10;57.60;;;;;;5013079;28;20045;-65
2021/12/30 08:43:59;;;;;;;2.47;0.90;;;21.10;57.60;;;;;;5012728;28;20528;-65
2021/12/30 08:46:25;;;;;;;3.88;1.00;;;21.10;57.60;;;;;;5014176;28;20081;-66
2021/12/30 08:48:51;;;;;;;3.28;0.77;;;21.10;57.60;;;;;;5011821;28;20048;-65
2021/12/30 08:51:16;;;;;;;1.73;0.77;;;21.10;57.70;;;;;;5014143;28;20436;-64
2021/12/30 08:53:42;;;;;;;2.65;0.90;;;21.20;57.80;;;;;;5012193;28;20137;-67
2021/12/30 08:56:08;;;;;;;2.00;0.70;;;21.20;57.90;;;;;;5010964;28;20065;-67
2021/12/30 08:58:34;;;;;;;5.70;0.70;;;21.20;58.60;;;;;;5013775;28;20099;-67
2021/12/30 09:01:00;;;;;;;2.33;0.70;;;21.10;57.80;;;;;;5012201;28;20940;-66
2021/12/30 09:03:25;;;;;;;2.45;0.80;;;21.10;57.90;;;;;;5011949;28;20070;-68
2021/12/30 09:05:51;;;;;;;3.25;0.93;;;21.20;58.00;;;;;;5013251;28;20470;-68
2021/12/30 09:08:16;;;;;;;2.95;0.73;;;21.10;58.00;;;;;;5012354;28;20056;-68
2021/12/30 09:10:45;;;;;;;1.73;0.70;;;21.20;58.00;;;;;;5011345;28;20033;-68
2021/12/30 09:13:11;;;;;;;2.22;0.63;;;21.20;58.00;;;;;;5013561;28;20051;-67
2021/12/30 09:15:37;;;;;;;1.25;0.50;;;21.20;58.10;;;;;;5012392;28;20046;-66
2021/12/30 09:18:03;;;;;;;2.42;0.70;;;21.20;58.10;;;;;;5011390;28;20130;-66
2021/12/30 09:20:28;;;;;;;1.80;0.70;;;21.20;58.20;;;;;;5011733;28;20065;-67
2021/12/30 09:22:54;;;;;;;2.10;0.70;;;21.20;58.10;;;;;;5011221;28;20066;-66
2021/12/30 09:25:22;;;;;;;5.20;0.85;;;21.20;58.20;;;;;;5012417;28;20033;-65
2021/12/30 09:27:48;;;;;;;1.40;0.63;;;21.20;58.20;;;;;;5010558;28;20048;-67
2021/12/30 09:30:14;;;;;;;2.42;0.60;;;21.20;58.20;;;;;;5013081;28;20043;-66
2021/12/30 09:32:40;;;;;;;3.05;0.68;;;21.20;58.30;;;;;;5010940;28;20064;-66
2021/12/30 09:35:06;;;;;;;1.70;0.60;;;21.20;58.20;;;;;;5025379;28;20393;-67
2021/12/30 09:37:31;;;;;;;5.50;0.60;;;21.20;58.20;;;;;;5031557;28;20073;-65
2021/12/30 09:39:59;;;;;;;1.38;0.50;;;21.20;58.10;;;;;;5030720;28;20127;-65
2021/12/30 09:42:24;;;;;;;1.95;0.70;;;21.20;58.00;;;;;;5031772;28;20033;-66
2021/12/30 09:44:50;;;;;;;2.00;0.50;;;21.20;58.00;;;;;;5028497;28;20052;-67
2021/12/30 09:47:15;;;;;;;2.20;0.68;;;21.20;57.90;;;;;;5020231;28;20044;-66
2021/12/30 09:49:41;;;;;;;2.58;0.52;;;21.20;58.00;;;;;;5023042;28;20037;-66
2021/12/30 09:52:07;;;;;;;3.35;0.80;;;21.20;58.00;;;;;;5020176;28;20076;-66
2021/12/30 09:54:32;;;;;;;4.05;0.90;;;21.20;58.00;;;;;;5022284;28;20488;-65
2021/12/30 09:56:57;;;;;;;2.55;0.80;;;21.20;58.00;;;;;;5021539;28;20107;-65
2021/12/30 09:59:24;;;;;;;3.50;0.77;;;21.20;58.30;;;;;;5018981;28;20038;-64
2021/12/30 10:01:49;;;;;;;3.00;0.80;;;21.20;58.40;;;;;;5022073;28;20112;-66
2021/12/30 10:04:15;;;;;;;2.67;0.80;;;21.20;58.50;;;;;;5021842;28;20042;-65
2021/12/30 10:06:48;;;;;;;3.78;0.85;;;21.30;58.60;;;;;;5019313;28;20054;-65
2021/12/30 10:09:15;;;;;;;4.32;0.70;;;21.30;58.60;;;;;;5025858;28;20037;-66
2021/12/30 10:11:51;;;;;;;2.08;0.90;;;21.30;58.60;;;;;;5027192;28;20064;-65
2021/12/30 10:14:27;;;;;;;1.45;0.70;;;21.30;58.70;;;;;;5026322;28;20408;-65
2021/12/30 10:17:16;;;;;;;2.00;0.65;;;21.30;58.80;;;;;;5025215;28;20045;-65
2021/12/30 10:19:41;;;;;;;2.03;0.70;;;21.30;58.70;;;;;;5026629;28;20404;-65
2021/12/30 10:22:15;;;;;;;3.67;0.85;;;21.30;58.70;;;;;;5006347;28;20478;-65
2021/12/30 10:24:41;;;;;;;3.03;0.70;;;21.30;58.80;;;;;;5027022;28;20049;-65
2021/12/30 10:27:07;;;;;;;2.78;0.80;;;21.30;58.70;;;;;;5024552;28;20046;-66
2021/12/30 10:29:41;;;;;;;3.28;0.90;;;21.30;58.80;;;;;;5024251;28;20040;-65
2021/12/30 10:32:22;;;;;;;3.15;0.90;;;21.30;58.80;;;;;;5023401;28;20041;-66
2021/12/30 10:35:13;;;;;;;3.53;1.10;;;21.30;58.80;;;;;;5022460;28;20042;-64
2021/12/30 10:37:45;;;;;;;6.05;1.10;;;21.30;58.70;;;;;;5032339;28;20132;-65
2021/12/30 10:40:25;;;;;;;2.33;1.02;;;21.30;58.90;;;;;;5035079;28;20045;-65
2021/12/30 10:42:51;;;;;;;3.50;1.00;;;21.30;58.70;;;;;;5034951;28;20052;-63
2021/12/30 10:45:19;;;;;;;9.57;1.15;;;21.30;58.60;;;;;;5036313;28;20041;-68
2021/12/30 10:47:53;;;;;;;4.55;0.90;;;21.40;58.60;;;;;;5034435;28;20072;-65
2021/12/30 10:50:23;;;;;;;3.35;0.90;;;21.30;58.60;;;;;;5035010;28;20508;-61
2021/12/30 10:52:51;;;;;;;4.60;0.80;;;21.30;58.50;;;;;;5026581;28;20056;-64
2021/12/30 10:55:16;;;;;;;4.05;1.25;;;21.30;58.60;;;;;;5024107;28;20504;-64
2021/12/30 10:57:42;;;;;;;2.60;0.90;;;21.30;58.70;;;;;;5023160;28;20125;-64
2021/12/30 11:00:09;;;;;;;4.47;1.05;;;21.30;58.80;;;;;;5021731;28;20100;-64
2021/12/30 11:02:34;;;;;;;4.50;1.40;;;21.40;58.80;;;;;;5023078;28;20095;-63
2021/12/30 11:05:04;;;;;;;3.88;0.93;;;21.30;58.90;;;;;;5026269;28;20041;-63
2021/12/30 11:07:47;;;;;;;4.53;1.20;;;21.40;59.00;;;;;;5024937;28;20050;-62
2021/12/30 11:10:13;;;;;;;4.30;1.05;;;21.30;58.90;;;;;;5021996;28;20046;-63
2021/12/30 11:12:41;;;;;;;2.75;1.13;;;21.40;59.00;;;;;;5024072;28;20119;-63
2021/12/30 11:15:18;;;;;;;3.50;1.10;;;21.40;59.10;;;;;;5021257;28;20109;-62
2021/12/30 11:17:44;;;;;;;3.38;0.95;;;21.40;59.00;;;;;;5021855;28;20046;-63
2021/12/30 11:20:11;;;;;;;5.35;1.20;;;21.30;59.00;;;;;;5024569;28;20464;-62
2021/12/30 11:22:38;;;;;;;2.30;0.82;;;21.40;59.10;;;;;;5024263;28;20041;-64
2021/12/30 11:25:07;;;;;;;4.30;1.38;;;21.40;59.20;;;;;;5022969;28;20052;-63
2021/12/30 11:27:34;;;;;;;2.75;1.10;;;21.40;59.10;;;;;;5023662;28;20045;-63
2021/12/30 11:30:20;;;;;;;3.58;1.13;;;21.40;59.10;;;;;;5024155;28;20408;-63
2021/12/30 11:32:48;;;;;;;4.78;1.30;;;21.40;59.00;;;;;;5019952;28;20128;-63
2021/12/30 11:35:15;;;;;;;3.55;1.17;;;21.40;59.10;;;;;;5023137;28;20041;-62
2021/12/30 11:37:40;;;;;;;3.97;1.10;;;21.40;59.10;;;;;;5026153;28;20048;-62
2021/12/30 11:40:11;;;;;;;3.42;1.23;;;21.30;59.00;;;;;;5032976;28;20128;-62
2021/12/30 11:42:41;;;;;;;3.33;1.08;;;21.40;59.00;;;;;;5034041;28;20064;-62
2021/12/30 11:45:29;;;;;;;6.30;1.08;;;21.40;58.90;;;;;;5032895;28;20069;-62
2021/12/30 11:47:59;;;;;;;4.53;1.17;;;21.40;58.80;;;;;;5034852;28;20068;-62
2021/12/30 11:50:32;;;;;;;5.50;1.30;;;21.30;58.80;;;;;;5034764;28;20045;-63
2021/12/30 11:53:12;;;;;;;3.67;0.98;;;21.30;58.70;;;;;;5033784;28;20412;-63
2021/12/30 11:55:44;;;;;;;5.30;1.35;;;21.30;58.70;;;;;;5031753;28;20045;-62
2021/12/30 12:01:24;;;;;;;4.43;1.38;;;21.30;58.70;;;;;;5009565;28;20176;-62
2021/12/30 12:03:52;;;;;;;5.72;1.50;;;21.30;58.70;;;;;;5012818;28;20716;-62
2021/12/30 12:06:38;;;;;;;4.20;1.38;;;21.30;59.40;;;;;;5025951;28;20080;-62
2021/12/30 12:09:19;;;;;;;4.65;1.67;;;21.30;58.70;;;;;;5008724;28;20056;-62
2021/12/30 12:11:44;;;;;;;3.72;1.30;;;21.30;58.70;;;;;;5024959;28;20072;-62
2021/12/30 12:14:17;;;;;;;7.60;1.48;;;21.20;58.70;;;;;;5022553;28;20046;-61
2021/12/30 12:16:44;;;;;;;6.88;1.92;;;21.20;58.70;;;;;;5021922;28;20045;-61
2021/12/30 12:19:10;;;;;;;4.70;1.70;;;21.30;58.80;;;;;;5020307;28;20046;-63
2021/12/30 12:21:41;;;;;;;5.88;1.55;;;21.20;59.00;;;;;;5022076;28;20087;-63
2021/12/30 12:24:21;;;;;;;6.20;1.65;;;21.20;59.00;;;;;;5020208;28;20052;-63
2021/12/30 12:26:57;;;;;;;4.55;1.50;;;21.20;59.20;;;;;;5021732;28;20838;-64
2021/12/30 12:29:42;;;;;;;6.40;1.83;;;21.20;59.20;;;;;;4993492;28;20050;-63
2021/12/30 12:32:14;;;;;;;6.15;1.80;;;21.20;59.30;;;;;;4994769;28;20046;-62
2021/12/30 12:34:42;;;;;;;7.10;1.90;;;21.20;59.30;;;;;;4994161;28;20038;-63
2021/12/30 12:37:29;;;;;;;6.40;2.10;;;21.30;59.30;;;;;;4994787;28;20042;-62
2021/12/30 12:39:56;;;;;;;5.27;1.63;;;21.30;59.40;;;;;;4992982;28;20058;-62
2021/12/30 12:42:48;;;;;;;6.75;1.92;;;21.20;59.40;;;;;;4992345;28;20050;-63
2021/12/30 12:45:25;;;;;;;8.85;2.13;;;21.20;59.40;;;;;;4994120;28;20500;-63
2021/12/30 12:48:16;;;;;;;7.68;2.13;;;21.30;59.50;;;;;;5021715;28;20828;-63
2021/12/30 12:50:42;;;;;;;6.05;2.30;;;21.30;59.50;;;;;;5018546;28;20080;-63
2021/12/30 12:53:26;;;;;;;6.50;1.98;;;21.30;59.50;;;;;;5020043;28;20129;-61
2021/12/30 12:55:56;;;;;;;7.68;1.92;;;21.30;59.50;;;;;;5018409;28;20056;-62